sensor_id;sensor_type;location;lat;lon;timestamp;temperature;humidity
51811;DHT22;52468;40.116;18.296;2022-07-26T00:01:48;28.30;62.70
51811;DHT22;52468;40.116;18.296;2022-07-26T00:04:16;28.30;62.70
51811;DHT22;52468;40.116;18.296;2022-07-26T00:06:44;28.30;62.70
51811;DHT22;52468;40.116;18.296;2022-07-26T00:09:12;28.30;63.10
51811;DHT22;52468;40.116;18.296;2022-07-26T00:11:40;28.20;63.30
51811;DHT22;52468;40.116;18.296;2022-07-26T00:14:08;28.20;63.30
51811;DHT22;52468;40.116;18.296;2022-07-26T00:16:36;28.10;62.80
51811;DHT22;52468;40.116;18.296;2022-07-26T00:19:05;28.10;62.10
51811;DHT22;52468;40.116;18.296;2022-07-26T00:21:36;28.00;61.90
51811;DHT22;52468;40.116;18.296;2022-07-26T00:24:05;28.00;62.00
51811;DHT22;52468;40.116;18.296;2022-07-26T00:26:33;28.00;62.00
51811;DHT22;52468;40.116;18.296;2022-07-26T00:29:02;27.90;62.10
51811;DHT22;52468;40.116;18.296;2022-07-26T00:31:31;27.90;62.10
51811;DHT22;52468;40.116;18.296;2022-07-26T00:33:59;27.80;62.00
51811;DHT22;52468;40.116;18.296;2022-07-26T00:36:27;27.80;62.00
51811;DHT22;52468;40.116;18.296;2022-07-26T00:38:56;27.70;62.30
51811;DHT22;52468;40.116;18.296;2022-07-26T00:41:24;27.70;62.50
51811;DHT22;52468;40.116;18.296;2022-07-26T00:43:56;27.70;62.40
51811;DHT22;52468;40.116;18.296;2022-07-26T00:46:25;27.70;63.70
51811;DHT22;52468;40.116;18.296;2022-07-26T00:48:53;27.70;63.70
51811;DHT22;52468;40.116;18.296;2022-07-26T00:51:21;27.80;64.50
51811;DHT22;52468;40.116;18.296;2022-07-26T00:53:49;27.80;65.00
51811;DHT22;52468;40.116;18.296;2022-07-26T00:56:17;27.80;65.10
51811;DHT22;52468;40.116;18.296;2022-07-26T00:58:45;27.80;64.90
51811;DHT22;52468;40.116;18.296;2022-07-26T01:01:13;27.80;64.60
51811;DHT22;52468;40.116;18.296;2022-07-26T01:03:41;27.70;63.80
51811;DHT22;52468;40.116;18.296;2022-07-26T01:06:09;27.70;62.50
51811;DHT22;52468;40.116;18.296;2022-07-26T01:08:37;27.60;62.00
51811;DHT22;52468;40.116;18.296;2022-07-26T01:11:05;27.50;62.00
51811;DHT22;52468;40.116;18.296;2022-07-26T01:13:33;27.30;61.90
51811;DHT22;52468;40.116;18.296;2022-07-26T01:16:02;27.30;61.90
51811;DHT22;52468;40.116;18.296;2022-07-26T01:18:30;27.20;61.70
51811;DHT22;52468;40.116;18.296;2022-07-26T01:21:01;27.20;61.60
51811;DHT22;52468;40.116;18.296;2022-07-26T01:23:30;27.20;61.60
51811;DHT22;52468;40.116;18.296;2022-07-26T01:25:58;27.20;61.70
51811;DHT22;52468;40.116;18.296;2022-07-26T01:28:26;27.20;61.70
51811;DHT22;52468;40.116;18.296;2022-07-26T01:30:54;27.20;61.80
51811;DHT22;52468;40.116;18.296;2022-07-26T01:33:22;27.10;61.60
51811;DHT22;52468;40.116;18.296;2022-07-26T01:35:54;27.10;61.30
51811;DHT22;52468;40.116;18.296;2022-07-26T01:38:22;27.00;61.40
51811;DHT22;52468;40.116;18.296;2022-07-26T01:40:50;27.00;61.30
51811;DHT22;52468;40.116;18.296;2022-07-26T01:43:18;26.90;61.10
51811;DHT22;52468;40.116;18.296;2022-07-26T01:45:46;26.80;61.00
51811;DHT22;52468;40.116;18.296;2022-07-26T01:48:14;26.80;61.00
51811;DHT22;52468;40.116;18.296;2022-07-26T01:50:42;26.70;60.70
51811;DHT22;52468;40.116;18.296;2022-07-26T01:53:09;26.70;60.40
51811;DHT22;52468;40.116;18.296;2022-07-26T01:55:37;26.80;60.30
51811;DHT22;52468;40.116;18.296;2022-07-26T01:58:06;26.70;60.30
51811;DHT22;52468;40.116;18.296;2022-07-26T02:00:34;26.70;60.20
51811;DHT22;52468;40.116;18.296;2022-07-26T02:03:02;26.70;60.20
51811;DHT22;52468;40.116;18.296;2022-07-26T02:05:30;26.70;60.20
51811;DHT22;52468;40.116;18.296;2022-07-26T02:07:58;26.70;60.10
51811;DHT22;52468;40.116;18.296;2022-07-26T02:10:26;26.60;60.30
51811;DHT22;52468;40.116;18.296;2022-07-26T02:13:14;26.60;60.50
51811;DHT22;52468;40.116;18.296;2022-07-26T02:15:42;26.50;60.80
51811;DHT22;52468;40.116;18.296;2022-07-26T02:18:10;26.50;61.10
51811;DHT22;52468;40.116;18.296;2022-07-26T02:20:38;26.50;61.30
51811;DHT22;52468;40.116;18.296;2022-07-26T02:23:06;26.50;61.50
51811;DHT22;52468;40.116;18.296;2022-07-26T02:25:34;26.50;61.60
51811;DHT22;52468;40.116;18.296;2022-07-26T02:28:01;26.50;61.80
51811;DHT22;52468;40.116;18.296;2022-07-26T02:30:29;26.50;62.10
51811;DHT22;52468;40.116;18.296;2022-07-26T02:32:57;26.50;62.10
51811;DHT22;52468;40.116;18.296;2022-07-26T02:35:25;26.50;62.30
51811;DHT22;52468;40.116;18.296;2022-07-26T02:37:53;26.50;62.50
51811;DHT22;52468;40.116;18.296;2022-07-26T02:40:21;26.50;62.30
51811;DHT22;52468;40.116;18.296;2022-07-26T02:42:49;26.50;62.40
51811;DHT22;52468;40.116;18.296;2022-07-26T02:45:17;26.50;62.80
51811;DHT22;52468;40.116;18.296;2022-07-26T02:47:46;26.50;63.10
51811;DHT22;52468;40.116;18.296;2022-07-26T02:50:16;26.60;63.20
51811;DHT22;52468;40.116;18.296;2022-07-26T02:52:45;26.60;63.20
51811;DHT22;52468;40.116;18.296;2022-07-26T02:55:16;26.70;63.20
51811;DHT22;52468;40.116;18.296;2022-07-26T02:57:44;26.60;63.20
51811;DHT22;52468;40.116;18.296;2022-07-26T03:00:14;26.60;63.10
51811;DHT22;52468;40.116;18.296;2022-07-26T03:02:43;26.60;63.00
51811;DHT22;52468;40.116;18.296;2022-07-26T03:05:11;26.70;62.80
51811;DHT22;52468;40.116;18.296;2022-07-26T03:07:39;26.80;62.70
51811;DHT22;52468;40.116;18.296;2022-07-26T03:10:07;26.70;62.80
51811;DHT22;52468;40.116;18.296;2022-07-26T03:12:35;26.60;64.20
51811;DHT22;52468;40.116;18.296;2022-07-26T03:15:04;26.70;64.00
51811;DHT22;52468;40.116;18.296;2022-07-26T03:17:32;26.80;64.20
51811;DHT22;52468;40.116;18.296;2022-07-26T03:20:00;26.90;64.60
51811;DHT22;52468;40.116;18.296;2022-07-26T03:22:29;26.90;66.00
51811;DHT22;52468;40.116;18.296;2022-07-26T03:24:57;26.90;67.10
51811;DHT22;52468;40.116;18.296;2022-07-26T03:27:25;26.90;68.20
51811;DHT22;52468;40.116;18.296;2022-07-26T03:29:53;27.00;68.60
51811;DHT22;52468;40.116;18.296;2022-07-26T03:32:21;26.90;68.70
51811;DHT22;52468;40.116;18.296;2022-07-26T03:34:49;27.00;68.90
51811;DHT22;52468;40.116;18.296;2022-07-26T03:37:17;27.00;68.90
51811;DHT22;52468;40.116;18.296;2022-07-26T03:39:45;27.00;69.00
51811;DHT22;52468;40.116;18.296;2022-07-26T03:42:13;27.10;69.10
51811;DHT22;52468;40.116;18.296;2022-07-26T03:44:41;27.10;69.60
51811;DHT22;52468;40.116;18.296;2022-07-26T03:47:09;27.10;70.10
51811;DHT22;52468;40.116;18.296;2022-07-26T03:49:37;27.10;70.80
51811;DHT22;52468;40.116;18.296;2022-07-26T03:52:05;27.10;71.20
51811;DHT22;52468;40.116;18.296;2022-07-26T03:54:33;27.10;71.60
51811;DHT22;52468;40.116;18.296;2022-07-26T03:57:01;27.10;71.70
51811;DHT22;52468;40.116;18.296;2022-07-26T03:59:29;27.20;71.60
51811;DHT22;52468;40.116;18.296;2022-07-26T04:01:56;27.20;71.40
51811;DHT22;52468;40.116;18.296;2022-07-26T04:04:24;27.30;71.40
51811;DHT22;52468;40.116;18.296;2022-07-26T04:06:52;27.40;71.30
51811;DHT22;52468;40.116;18.296;2022-07-26T04:09:23;27.60;71.30
51811;DHT22;52468;40.116;18.296;2022-07-26T04:11:50;27.70;71.00
51811;DHT22;52468;40.116;18.296;2022-07-26T04:14:18;27.80;70.60
51811;DHT22;52468;40.116;18.296;2022-07-26T04:16:47;27.80;70.60
51811;DHT22;52468;40.116;18.296;2022-07-26T04:19:15;27.90;70.50
51811;DHT22;52468;40.116;18.296;2022-07-26T04:21:43;28.00;70.30
51811;DHT22;52468;40.116;18.296;2022-07-26T04:24:11;28.00;70.20
51811;DHT22;52468;40.116;18.296;2022-07-26T04:26:39;28.10;70.00
51811;DHT22;52468;40.116;18.296;2022-07-26T04:29:07;28.20;69.90
51811;DHT22;52468;40.116;18.296;2022-07-26T04:31:35;28.50;69.30
51811;DHT22;52468;40.116;18.296;2022-07-26T04:34:03;28.60;68.80
51811;DHT22;52468;40.116;18.296;2022-07-26T04:36:31;28.80;68.60
51811;DHT22;52468;40.116;18.296;2022-07-26T04:38:59;28.90;68.30
51811;DHT22;52468;40.116;18.296;2022-07-26T04:41:27;29.00;67.60
51811;DHT22;52468;40.116;18.296;2022-07-26T04:43:55;29.10;65.30
51811;DHT22;52468;40.116;18.296;2022-07-26T04:46:23;29.30;63.00
51811;DHT22;52468;40.116;18.296;2022-07-26T04:48:51;29.50;61.40
51811;DHT22;52468;40.116;18.296;2022-07-26T04:51:19;29.60;60.80
51811;DHT22;52468;40.116;18.296;2022-07-26T04:53:47;29.90;59.60
51811;DHT22;52468;40.116;18.296;2022-07-26T04:56:15;30.00;59.00
51811;DHT22;52468;40.116;18.296;2022-07-26T04:58:43;30.20;58.50
51811;DHT22;52468;40.116;18.296;2022-07-26T05:01:11;30.40;57.80
51811;DHT22;52468;40.116;18.296;2022-07-26T05:03:39;30.60;57.40
51811;DHT22;52468;40.116;18.296;2022-07-26T05:06:07;30.80;56.90
51811;DHT22;52468;40.116;18.296;2022-07-26T05:08:35;30.90;56.40
51811;DHT22;52468;40.116;18.296;2022-07-26T05:11:03;30.90;56.60
51811;DHT22;52468;40.116;18.296;2022-07-26T05:13:30;30.90;56.40
51811;DHT22;52468;40.116;18.296;2022-07-26T05:15:59;31.00;56.30
51811;DHT22;52468;40.116;18.296;2022-07-26T05:18:27;31.10;56.10
51811;DHT22;52468;40.116;18.296;2022-07-26T05:20:56;31.20;55.80
51811;DHT22;52468;40.116;18.296;2022-07-26T05:23:24;31.30;55.80
51811;DHT22;52468;40.116;18.296;2022-07-26T05:25:52;31.40;55.60
51811;DHT22;52468;40.116;18.296;2022-07-26T05:28:20;31.50;55.80
51811;DHT22;52468;40.116;18.296;2022-07-26T05:30:48;31.60;55.50
51811;DHT22;52468;40.116;18.296;2022-07-26T05:33:16;31.60;55.60
51811;DHT22;52468;40.116;18.296;2022-07-26T05:35:44;31.60;55.30
51811;DHT22;52468;40.116;18.296;2022-07-26T05:38:12;31.70;55.20
51811;DHT22;52468;40.116;18.296;2022-07-26T05:40:40;31.60;54.70
51811;DHT22;52468;40.116;18.296;2022-07-26T05:43:09;31.60;54.80
51811;DHT22;52468;40.116;18.296;2022-07-26T05:45:37;31.80;54.50
51811;DHT22;52468;40.116;18.296;2022-07-26T05:48:05;32.00;54.00
51811;DHT22;52468;40.116;18.296;2022-07-26T05:50:33;32.00;53.50
51811;DHT22;52468;40.116;18.296;2022-07-26T05:53:01;32.10;51.50
51811;DHT22;52468;40.116;18.296;2022-07-26T05:55:29;32.00;50.80
51811;DHT22;52468;40.116;18.296;2022-07-26T05:57:57;32.10;49.70
51811;DHT22;52468;40.116;18.296;2022-07-26T06:00:25;32.10;50.20
51811;DHT22;52468;40.116;18.296;2022-07-26T06:02:53;32.40;49.00
51811;DHT22;52468;40.116;18.296;2022-07-26T06:05:21;32.50;46.30
51811;DHT22;52468;40.116;18.296;2022-07-26T06:07:49;32.50;45.40
51811;DHT22;52468;40.116;18.296;2022-07-26T06:10:16;32.50;44.30
51811;DHT22;52468;40.116;18.296;2022-07-26T06:12:44;32.70;44.50
51811;DHT22;52468;40.116;18.296;2022-07-26T06:15:12;32.70;44.20
51811;DHT22;52468;40.116;18.296;2022-07-26T06:17:40;32.90;44.10
51811;DHT22;52468;40.116;18.296;2022-07-26T06:20:08;33.00;44.50
51811;DHT22;52468;40.116;18.296;2022-07-26T06:22:36;33.20;44.80
51811;DHT22;52468;40.116;18.296;2022-07-26T06:25:05;33.40;44.40
51811;DHT22;52468;40.116;18.296;2022-07-26T06:27:33;33.50;43.90
51811;DHT22;52468;40.116;18.296;2022-07-26T06:30:01;33.60;44.20
51811;DHT22;52468;40.116;18.296;2022-07-26T06:32:29;33.60;44.00
51811;DHT22;52468;40.116;18.296;2022-07-26T06:34:56;33.80;43.40
51811;DHT22;52468;40.116;18.296;2022-07-26T06:37:24;33.90;43.80
51811;DHT22;52468;40.116;18.296;2022-07-26T06:39:52;34.00;44.30
51811;DHT22;52468;40.116;18.296;2022-07-26T06:42:20;34.00;44.20
51811;DHT22;52468;40.116;18.296;2022-07-26T06:44:48;34.00;43.70
51811;DHT22;52468;40.116;18.296;2022-07-26T06:47:16;34.20;43.40
51811;DHT22;52468;40.116;18.296;2022-07-26T06:49:43;34.30;43.70
51811;DHT22;52468;40.116;18.296;2022-07-26T06:52:11;34.30;42.20
51811;DHT22;52468;40.116;18.296;2022-07-26T06:54:39;34.40;42.70
51811;DHT22;52468;40.116;18.296;2022-07-26T06:57:07;34.50;42.70
51811;DHT22;52468;40.116;18.296;2022-07-26T06:59:35;34.60;43.60
51811;DHT22;52468;40.116;18.296;2022-07-26T07:02:03;34.80;43.90
51811;DHT22;52468;40.116;18.296;2022-07-26T07:04:33;35.00;44.50
51811;DHT22;52468;40.116;18.296;2022-07-26T07:07:01;35.00;44.90
51811;DHT22;52468;40.116;18.296;2022-07-26T07:09:31;35.00;45.10
51811;DHT22;52468;40.116;18.296;2022-07-26T07:11:59;35.20;43.10
51811;DHT22;52468;40.116;18.296;2022-07-26T07:14:32;35.50;41.20
51811;DHT22;52468;40.116;18.296;2022-07-26T07:17:00;35.70;40.80
51811;DHT22;52468;40.116;18.296;2022-07-26T07:19:28;35.90;40.70
51811;DHT22;52468;40.116;18.296;2022-07-26T07:21:56;36.10;40.50
51811;DHT22;52468;40.116;18.296;2022-07-26T07:24:24;36.20;39.90
51811;DHT22;52468;40.116;18.296;2022-07-26T07:26:52;36.40;39.40
51811;DHT22;52468;40.116;18.296;2022-07-26T07:29:20;36.50;39.10
51811;DHT22;52468;40.116;18.296;2022-07-26T07:31:48;36.50;39.40
51811;DHT22;52468;40.116;18.296;2022-07-26T07:34:17;36.50;39.80
51811;DHT22;52468;40.116;18.296;2022-07-26T07:36:49;36.70;39.80
51811;DHT22;52468;40.116;18.296;2022-07-26T07:39:18;37.00;39.60
51811;DHT22;52468;40.116;18.296;2022-07-26T07:41:47;37.10;39.40
51811;DHT22;52468;40.116;18.296;2022-07-26T07:44:15;37.30;39.10
51811;DHT22;52468;40.116;18.296;2022-07-26T07:46:43;37.30;38.90
51811;DHT22;52468;40.116;18.296;2022-07-26T07:49:11;37.10;38.50
51811;DHT22;52468;40.116;18.296;2022-07-26T07:51:39;37.00;37.70
51811;DHT22;52468;40.116;18.296;2022-07-26T07:54:07;37.00;37.90
51811;DHT22;52468;40.116;18.296;2022-07-26T07:56:35;37.10;37.40
51811;DHT22;52468;40.116;18.296;2022-07-26T07:59:03;37.50;36.40
51811;DHT22;52468;40.116;18.296;2022-07-26T08:01:31;37.80;35.20
51811;DHT22;52468;40.116;18.296;2022-07-26T08:03:59;38.10;34.20
51811;DHT22;52468;40.116;18.296;2022-07-26T08:06:27;38.30;33.10
51811;DHT22;52468;40.116;18.296;2022-07-26T08:08:55;38.30;32.60
51811;DHT22;52468;40.116;18.296;2022-07-26T08:11:23;38.40;31.90
51811;DHT22;52468;40.116;18.296;2022-07-26T08:13:51;38.50;32.10
51811;DHT22;52468;40.116;18.296;2022-07-26T08:16:18;38.60;32.10
51811;DHT22;52468;40.116;18.296;2022-07-26T08:18:46;38.60;31.90
51811;DHT22;52468;40.116;18.296;2022-07-26T08:21:22;38.70;31.60
51811;DHT22;52468;40.116;18.296;2022-07-26T08:23:50;38.90;30.70
51811;DHT22;52468;40.116;18.296;2022-07-26T08:26:18;38.90;30.50
51811;DHT22;52468;40.116;18.296;2022-07-26T08:31:15;38.50;30.30
51811;DHT22;52468;40.116;18.296;2022-07-26T08:33:43;38.40;30.80
51811;DHT22;52468;40.116;18.296;2022-07-26T08:36:11;38.50;30.50
51811;DHT22;52468;40.116;18.296;2022-07-26T08:38:40;38.60;30.40
51811;DHT22;52468;40.116;18.296;2022-07-26T08:41:08;38.80;30.10
51811;DHT22;52468;40.116;18.296;2022-07-26T08:43:36;38.90;29.90
51811;DHT22;52468;40.116;18.296;2022-07-26T08:46:04;38.70;30.20
51811;DHT22;52468;40.116;18.296;2022-07-26T08:48:32;38.60;30.40
51811;DHT22;52468;40.116;18.296;2022-07-26T08:51:07;38.40;30.60
51811;DHT22;52468;40.116;18.296;2022-07-26T08:53:36;38.50;31.00
51811;DHT22;52468;40.116;18.296;2022-07-26T08:56:05;38.80;30.70
51811;DHT22;52468;40.116;18.296;2022-07-26T08:58:34;39.00;30.10
51811;DHT22;52468;40.116;18.296;2022-07-26T09:01:05;39.30;29.50
51811;DHT22;52468;40.116;18.296;2022-07-26T09:03:33;39.60;29.10
51811;DHT22;52468;40.116;18.296;2022-07-26T09:08:42;40.00;28.10
51811;DHT22;52468;40.116;18.296;2022-07-26T09:11:26;40.10;27.90
51811;DHT22;52468;40.116;18.296;2022-07-26T09:13:59;40.10;27.60
51811;DHT22;52468;40.116;18.296;2022-07-26T09:16:27;40.40;26.90
51811;DHT22;52468;40.116;18.296;2022-07-26T09:19:14;40.60;26.20
51811;DHT22;52468;40.116;18.296;2022-07-26T09:21:44;40.70;25.90
51811;DHT22;52468;40.116;18.296;2022-07-26T09:24:28;40.70;25.80
51811;DHT22;52468;40.116;18.296;2022-07-26T09:26:57;40.80;25.50
51811;DHT22;52468;40.116;18.296;2022-07-26T09:29:26;40.60;25.50
51811;DHT22;52468;40.116;18.296;2022-07-26T09:32:09;40.50;25.50
51811;DHT22;52468;40.116;18.296;2022-07-26T09:34:38;40.40;25.80
51811;DHT22;52468;40.116;18.296;2022-07-26T09:37:11;40.30;25.70
51811;DHT22;52468;40.116;18.296;2022-07-26T09:39:59;40.50;25.30
51811;DHT22;52468;40.116;18.296;2022-07-26T09:42:27;40.70;24.90
51811;DHT22;52468;40.116;18.296;2022-07-26T09:44:57;41.00;24.80
51811;DHT22;52468;40.116;18.296;2022-07-26T09:47:36;41.20;24.40
51811;DHT22;52468;40.116;18.296;2022-07-26T09:50:19;41.40;24.50
51811;DHT22;52468;40.116;18.296;2022-07-26T09:53:03;41.30;24.50
51811;DHT22;52468;40.116;18.296;2022-07-26T09:55:56;41.10;24.40
51811;DHT22;52468;40.116;18.296;2022-07-26T09:58:23;41.00;24.50
51811;DHT22;52468;40.116;18.296;2022-07-26T10:00:51;41.20;24.70
51811;DHT22;52468;40.116;18.296;2022-07-26T10:03:19;41.30;24.60
51811;DHT22;52468;40.116;18.296;2022-07-26T10:05:46;41.20;24.60
51811;DHT22;52468;40.116;18.296;2022-07-26T10:08:14;41.30;24.40
51811;DHT22;52468;40.116;18.296;2022-07-26T10:10:53;41.40;24.40
51811;DHT22;52468;40.116;18.296;2022-07-26T10:13:22;41.50;24.40
51811;DHT22;52468;40.116;18.296;2022-07-26T10:15:53;41.80;23.90
51811;DHT22;52468;40.116;18.296;2022-07-26T10:21:19;42.00;23.60
51811;DHT22;52468;40.116;18.296;2022-07-26T10:29:22;42.00;23.60
51811;DHT22;52468;40.116;18.296;2022-07-26T10:34:31;41.60;23.00
51811;DHT22;52468;40.116;18.296;2022-07-26T10:37:00;41.20;23.50
51811;DHT22;52468;40.116;18.296;2022-07-26T10:39:29;41.30;23.50
51811;DHT22;52468;40.116;18.296;2022-07-26T10:42:01;41.90;23.30
51811;DHT22;52468;40.116;18.296;2022-07-26T10:44:34;42.10;22.90
51811;DHT22;52468;40.116;18.296;2022-07-26T10:47:14;42.40;22.80
51811;DHT22;52468;40.116;18.296;2022-07-26T10:49:55;42.60;22.60
51811;DHT22;52468;40.116;18.296;2022-07-26T10:57:41;42.50;22.10
51811;DHT22;52468;40.116;18.296;2022-07-26T11:00:13;42.50;22.20
51811;DHT22;52468;40.116;18.296;2022-07-26T11:02:42;42.70;22.00
51811;DHT22;52468;40.116;18.296;2022-07-26T11:05:12;43.10;21.70
51811;DHT22;52468;40.116;18.296;2022-07-26T11:10:27;43.30;21.30
51811;DHT22;52468;40.116;18.296;2022-07-26T11:15:39;43.50;21.10
51811;DHT22;52468;40.116;18.296;2022-07-26T11:18:14;43.50;21.10
51811;DHT22;52468;40.116;18.296;2022-07-26T11:20:44;43.50;21.20
51811;DHT22;52468;40.116;18.296;2022-07-26T11:23:33;43.50;21.30
51811;DHT22;52468;40.116;18.296;2022-07-26T11:31:16;43.70;21.50
51811;DHT22;52468;40.116;18.296;2022-07-26T11:33:47;43.70;21.60
51811;DHT22;52468;40.116;18.296;2022-07-26T11:36:18;43.90;21.90
51811;DHT22;52468;40.116;18.296;2022-07-26T11:38:48;44.00;21.80
51811;DHT22;52468;40.116;18.296;2022-07-26T11:41:35;44.20;21.70
51811;DHT22;52468;40.116;18.296;2022-07-26T11:44:04;44.10;21.80
51811;DHT22;52468;40.116;18.296;2022-07-26T11:46:37;44.30;21.70
51811;DHT22;52468;40.116;18.296;2022-07-26T11:49:29;44.30;21.80
51811;DHT22;52468;40.116;18.296;2022-07-26T11:52:17;44.60;21.60
51811;DHT22;52468;40.116;18.296;2022-07-26T11:54:49;44.60;21.70
51811;DHT22;52468;40.116;18.296;2022-07-26T11:57:18;44.40;21.80
51811;DHT22;52468;40.116;18.296;2022-07-26T11:59:47;44.10;22.10
51811;DHT22;52468;40.116;18.296;2022-07-26T12:02:19;44.10;22.10
51811;DHT22;52468;40.116;18.296;2022-07-26T12:04:48;44.10;22.20
51811;DHT22;52468;40.116;18.296;2022-07-26T12:07:18;44.40;22.00
51811;DHT22;52468;40.116;18.296;2022-07-26T12:09:50;44.50;21.70
51811;DHT22;52468;40.116;18.296;2022-07-26T12:12:26;44.70;21.50
51811;DHT22;52468;40.116;18.296;2022-07-26T12:15:02;45.00;21.30
51811;DHT22;52468;40.116;18.296;2022-07-26T12:17:31;45.00;21.10
51811;DHT22;52468;40.116;18.296;2022-07-26T12:20:16;44.80;21.30
51811;DHT22;52468;40.116;18.296;2022-07-26T12:22:57;44.70;21.40
51811;DHT22;52468;40.116;18.296;2022-07-26T12:25:32;44.80;21.50
51811;DHT22;52468;40.116;18.296;2022-07-26T12:28:03;44.90;21.20
51811;DHT22;52468;40.116;18.296;2022-07-26T12:30:38;44.60;21.40
51811;DHT22;52468;40.116;18.296;2022-07-26T12:33:06;44.60;21.40
51811;DHT22;52468;40.116;18.296;2022-07-26T12:35:33;44.90;21.30
51811;DHT22;52468;40.116;18.296;2022-07-26T12:38:04;44.90;21.20
51811;DHT22;52468;40.116;18.296;2022-07-26T12:40:41;44.90;21.00
51811;DHT22;52468;40.116;18.296;2022-07-26T12:43:09;44.70;21.10
51811;DHT22;52468;40.116;18.296;2022-07-26T12:45:37;44.70;21.30
51811;DHT22;52468;40.116;18.296;2022-07-26T12:48:07;44.90;21.20
51811;DHT22;52468;40.116;18.296;2022-07-26T12:50:37;45.30;20.90
51811;DHT22;52468;40.116;18.296;2022-07-26T12:53:08;46.00;20.30
51811;DHT22;52468;40.116;18.296;2022-07-26T12:55:36;46.00;20.30
51811;DHT22;52468;40.116;18.296;2022-07-26T12:58:04;45.90;20.30
51811;DHT22;52468;40.116;18.296;2022-07-26T13:00:32;45.90;20.40
51811;DHT22;52468;40.116;18.296;2022-07-26T13:03:00;46.30;20.10
51811;DHT22;52468;40.116;18.296;2022-07-26T13:05:28;46.90;19.60
51811;DHT22;52468;40.116;18.296;2022-07-26T13:07:57;47.60;19.20
51811;DHT22;52468;40.116;18.296;2022-07-26T13:10:25;48.00;18.80
51811;DHT22;52468;40.116;18.296;2022-07-26T13:13:02;49.00;18.30
51811;DHT22;52468;40.116;18.296;2022-07-26T13:15:30;50.10;17.60
51811;DHT22;52468;40.116;18.296;2022-07-26T13:17:58;51.10;17.00
51811;DHT22;52468;40.116;18.296;2022-07-26T13:20:26;52.10;16.40
51811;DHT22;52468;40.116;18.296;2022-07-26T13:22:54;53.00;15.90
51811;DHT22;52468;40.116;18.296;2022-07-26T13:25:22;53.20;15.70
51811;DHT22;52468;40.116;18.296;2022-07-26T13:27:50;53.40;15.50
51811;DHT22;52468;40.116;18.296;2022-07-26T13:30:18;53.90;15.30
51811;DHT22;52468;40.116;18.296;2022-07-26T13:32:46;53.70;15.30
51811;DHT22;52468;40.116;18.296;2022-07-26T13:35:13;53.60;15.30
51811;DHT22;52468;40.116;18.296;2022-07-26T13:37:41;53.80;15.20
51811;DHT22;52468;40.116;18.296;2022-07-26T13:40:09;53.80;15.10
51811;DHT22;52468;40.116;18.296;2022-07-26T13:42:37;54.00;15.00
51811;DHT22;52468;40.116;18.296;2022-07-26T13:45:06;54.20;14.80
51811;DHT22;52468;40.116;18.296;2022-07-26T13:47:34;54.40;14.70
51811;DHT22;52468;40.116;18.296;2022-07-26T13:50:02;54.20;14.70
51811;DHT22;52468;40.116;18.296;2022-07-26T13:52:30;54.00;14.90
51811;DHT22;52468;40.116;18.296;2022-07-26T13:54:58;53.50;15.00
51811;DHT22;52468;40.116;18.296;2022-07-26T13:57:25;53.30;15.10
51811;DHT22;52468;40.116;18.296;2022-07-26T13:59:53;53.00;15.20
51811;DHT22;52468;40.116;18.296;2022-07-26T14:02:21;52.90;15.40
51811;DHT22;52468;40.116;18.296;2022-07-26T14:04:49;53.00;15.40
51811;DHT22;52468;40.116;18.296;2022-07-26T14:07:17;53.20;15.30
51811;DHT22;52468;40.116;18.296;2022-07-26T14:09:45;53.00;15.40
51811;DHT22;52468;40.116;18.296;2022-07-26T14:12:13;53.10;15.40
51811;DHT22;52468;40.116;18.296;2022-07-26T14:14:41;53.10;15.50
51811;DHT22;52468;40.116;18.296;2022-07-26T14:17:09;53.40;15.40
51811;DHT22;52468;40.116;18.296;2022-07-26T14:19:36;53.10;15.40
51811;DHT22;52468;40.116;18.296;2022-07-26T14:22:04;53.00;15.50
51811;DHT22;52468;40.116;18.296;2022-07-26T14:24:32;53.30;15.50
51811;DHT22;52468;40.116;18.296;2022-07-26T14:27:00;53.50;15.30
51811;DHT22;52468;40.116;18.296;2022-07-26T14:29:28;53.60;15.40
51811;DHT22;52468;40.116;18.296;2022-07-26T14:31:56;53.70;15.40
51811;DHT22;52468;40.116;18.296;2022-07-26T14:34:24;53.70;15.40
51811;DHT22;52468;40.116;18.296;2022-07-26T14:36:52;53.60;15.50
51811;DHT22;52468;40.116;18.296;2022-07-26T14:39:20;53.50;15.50
51811;DHT22;52468;40.116;18.296;2022-07-26T14:41:48;53.20;15.70
51811;DHT22;52468;40.116;18.296;2022-07-26T14:44:16;52.70;16.10
51811;DHT22;52468;40.116;18.296;2022-07-26T14:46:44;52.60;16.20
51811;DHT22;52468;40.116;18.296;2022-07-26T14:49:12;52.90;16.20
51811;DHT22;52468;40.116;18.296;2022-07-26T14:51:40;53.10;15.80
51811;DHT22;52468;40.116;18.296;2022-07-26T14:54:08;53.00;15.90
51811;DHT22;52468;40.116;18.296;2022-07-26T14:56:36;52.70;16.10
51811;DHT22;52468;40.116;18.296;2022-07-26T14:59:04;52.20;16.30
51811;DHT22;52468;40.116;18.296;2022-07-26T15:01:32;52.00;16.60
51811;DHT22;52468;40.116;18.296;2022-07-26T15:04:00;52.40;16.10
51811;DHT22;52468;40.116;18.296;2022-07-26T15:06:28;52.40;16.10
51811;DHT22;52468;40.116;18.296;2022-07-26T15:08:56;52.40;16.10
51811;DHT22;52468;40.116;18.296;2022-07-26T15:11:23;52.70;15.80
51811;DHT22;52468;40.116;18.296;2022-07-26T15:13:51;53.00;15.60
51811;DHT22;52468;40.116;18.296;2022-07-26T15:16:19;53.00;15.70
51811;DHT22;52468;40.116;18.296;2022-07-26T15:18:47;52.90;15.70
51811;DHT22;52468;40.116;18.296;2022-07-26T15:21:15;53.00;15.80
51811;DHT22;52468;40.116;18.296;2022-07-26T15:23:43;53.00;15.70
51811;DHT22;52468;40.116;18.296;2022-07-26T15:26:11;53.00;15.50
51811;DHT22;52468;40.116;18.296;2022-07-26T15:28:39;53.10;15.50
51811;DHT22;52468;40.116;18.296;2022-07-26T15:31:09;53.10;15.50
51811;DHT22;52468;40.116;18.296;2022-07-26T15:33:37;52.80;15.70
51811;DHT22;52468;40.116;18.296;2022-07-26T15:36:05;52.70;15.60
51811;DHT22;52468;40.116;18.296;2022-07-26T15:38:33;52.30;15.80
51811;DHT22;52468;40.116;18.296;2022-07-26T15:41:00;52.40;15.80
51811;DHT22;52468;40.116;18.296;2022-07-26T15:43:28;52.70;15.60
51811;DHT22;52468;40.116;18.296;2022-07-26T15:45:56;52.70;15.60
51811;DHT22;52468;40.116;18.296;2022-07-26T15:48:24;52.70;15.70
51811;DHT22;52468;40.116;18.296;2022-07-26T15:50:52;52.50;15.80
51811;DHT22;52468;40.116;18.296;2022-07-26T15:53:20;52.30;15.80
51811;DHT22;52468;40.116;18.296;2022-07-26T15:55:47;52.00;16.00
51811;DHT22;52468;40.116;18.296;2022-07-26T15:58:15;51.90;16.20
51811;DHT22;52468;40.116;18.296;2022-07-26T16:00:43;51.30;16.40